createdAt,value
2023-05-15T00:03:41.280Z,100340.80
2023-05-15T00:08:41.011Z,100332.20
2023-05-15T00:13:40.361Z,100332.40
2023-05-15T00:18:39.243Z,100318.40
2023-05-15T00:23:38.765Z,100312.80
2023-05-15T00:28:37.346Z,100308.80
2023-05-15T00:33:36.603Z,100303.80
2023-05-15T00:38:36.249Z,100291.60
2023-05-15T00:43:36.639Z,100283.60
2023-05-15T00:48:36.813Z,100276.80
2023-05-15T00:53:37.765Z,100273.20
2023-05-15T00:58:40.623Z,100268.20
2023-05-15T01:03:40.153Z,100256.00
2023-05-15T01:08:47.675Z,100262.40
2023-05-15T01:13:47.330Z,100276.80
2023-05-15T01:18:46.455Z,100271.80
2023-05-15T01:24:02.187Z,100259.00
2023-05-15T01:29:10.794Z,100262.00
2023-05-15T01:34:14.647Z,100259.80
2023-05-15T01:39:23.329Z,100236.00
2023-05-15T01:44:29.631Z,100224.60
2023-05-15T01:49:32.266Z,100215.20
2023-05-15T01:54:32.641Z,100224.40
2023-05-15T01:59:34.013Z,100218.80
2023-05-15T02:04:37.090Z,100210.40
2023-05-15T02:09:38.363Z,100197.80
2023-05-15T02:14:38.654Z,100190.80
2023-05-15T02:19:38.120Z,100188.00
2023-05-15T02:24:37.454Z,100199.20
2023-05-15T02:29:51.215Z,100187.00
2023-05-15T02:35:09.217Z,100183.60
2023-05-15T02:40:14.018Z,100182.20
2023-05-15T02:45:17.282Z,100180.80
2023-05-15T02:50:17.615Z,100168.00
2023-05-15T02:55:16.888Z,100151.80
2023-05-15T03:00:19.654Z,100149.20
2023-05-15T03:05:19.829Z,100137.60
2023-05-15T03:10:21.362Z,100124.40
2023-05-15T03:15:21.457Z,100117.60
2023-05-15T03:20:21.070Z,100112.00
2023-05-15T03:25:21.217Z,100106.00
2023-05-15T03:30:20.538Z,100096.60
2023-05-15T03:35:19.540Z,100089.40
2023-05-15T03:40:19.756Z,100079.00
2023-05-15T03:45:19.399Z,100069.60
2023-05-15T03:50:20.737Z,100068.80
2023-05-15T03:55:19.817Z,100061.00
2023-05-15T04:00:20.274Z,100053.00
2023-05-15T04:05:22.025Z,100052.00
2023-05-15T04:10:21.851Z,100053.00
2023-05-15T04:15:24.308Z,100038.20
2023-05-15T04:20:26.045Z,100045.20
2023-05-15T04:25:25.793Z,100037.40
2023-05-15T04:30:24.873Z,100026.40
2023-05-15T04:35:23.828Z,100025.60
2023-05-15T04:40:23.102Z,100022.80
2023-05-15T04:45:22.268Z,100008.20
2023-05-15T04:50:22.192Z,100008.40
2023-05-15T04:55:22.218Z,99992.60
2023-05-15T05:00:22.858Z,99991.80
2023-05-15T05:05:22.711Z,99992.60
2023-05-15T05:10:22.216Z,99992.60
2023-05-15T05:15:21.694Z,99984.20
2023-05-15T05:20:21.706Z,99988.00
2023-05-15T05:25:21.099Z,99987.40
2023-05-15T05:30:20.885Z,99980.40
2023-05-15T05:35:19.825Z,99967.40
2023-05-15T05:40:19.971Z,99955.40
2023-05-15T05:45:19.858Z,99959.60
2023-05-15T05:50:19.143Z,99949.40
2023-05-15T05:55:43.944Z,99951.00
2023-05-15T06:00:45.169Z,99961.00
2023-05-15T06:05:44.219Z,99967.00
2023-05-15T06:10:43.282Z,99958.40
2023-05-15T06:15:42.918Z,99966.60
2023-05-15T06:20:44.140Z,99968.80
2023-05-15T06:25:43.547Z,99967.40
2023-05-15T06:30:42.868Z,99973.40
2023-05-15T06:35:42.838Z,99978.00
2023-05-15T06:40:42.125Z,99983.20
2023-05-15T06:45:41.451Z,99988.00
2023-05-15T06:50:40.741Z,99989.60
2023-05-15T06:55:39.792Z,99990.00
2023-05-15T07:00:38.784Z,99992.80
2023-05-15T07:05:38.276Z,99981.60
2023-05-15T07:10:37.925Z,99981.60
2023-05-15T07:15:37.544Z,99983.20
2023-05-15T07:20:37.128Z,99986.80
2023-05-15T07:25:36.821Z,99985.00
2023-05-15T07:30:35.773Z,99991.20
2023-05-15T07:35:34.396Z,99986.60
2023-05-15T07:40:33.963Z,99975.40
2023-05-15T07:45:33.643Z,99980.00
2023-05-15T07:50:33.408Z,99981.40
2023-05-15T07:55:32.874Z,99987.80
2023-05-15T08:00:32.364Z,99989.60
2023-05-15T08:05:31.883Z,99989.40
2023-05-15T08:10:30.434Z,99983.40
2023-05-15T08:15:29.583Z,99973.40
2023-05-15T08:20:28.819Z,99966.20
2023-05-15T08:25:28.037Z,99975.00
2023-05-15T08:30:27.743Z,99961.00
2023-05-15T08:35:27.165Z,99944.00
2023-05-15T08:40:38.362Z,99940.60
2023-05-15T08:45:39.529Z,99940.40
2023-05-15T08:50:40.991Z,99938.00
2023-05-15T08:55:40.764Z,99932.20
2023-05-15T09:00:39.668Z,99935.00
2023-05-15T09:05:40.080Z,99933.20
2023-05-15T09:10:40.101Z,99923.00
2023-05-15T09:15:40.298Z,99916.40
2023-05-15T09:20:41.203Z,99911.80
2023-05-15T09:25:44.938Z,99917.40
2023-05-15T09:30:46.619Z,99914.20
2023-05-15T09:35:46.288Z,99919.20
2023-05-15T09:40:45.273Z,99918.80
2023-05-15T09:45:47.901Z,99918.20
2023-05-15T09:50:46.840Z,99916.00
2023-05-15T09:55:49.246Z,99914.00
2023-05-15T10:00:50.038Z,99908.80
2023-05-15T10:05:49.306Z,99898.40
2023-05-15T10:10:50.301Z,99890.00
2023-05-15T10:15:50.733Z,99882.20
2023-05-15T10:20:50.820Z,99879.00
2023-05-15T10:26:03.291Z,99881.60
2023-05-15T10:31:06.244Z,99883.40
2023-05-15T10:36:07.787Z,99872.20
2023-05-15T10:41:17.140Z,99870.80
2023-05-15T10:46:17.837Z,99874.40
2023-05-15T10:51:30.929Z,99886.00
2023-05-15T10:56:35.434Z,99883.00
2023-05-15T11:01:37.432Z,99878.20
2023-05-15T11:06:36.838Z,99873.20
2023-05-15T11:12:00.489Z,99872.40
2023-05-15T11:17:05.937Z,99868.40
2023-05-15T11:22:20.074Z,99870.80
2023-05-15T11:27:23.670Z,99871.60
2023-05-15T11:32:59.905Z,99875.60
2023-05-15T11:38:03.496Z,99863.80
2023-05-15T11:43:18.401Z,99863.60
2023-05-15T11:48:21.898Z,99862.20
2023-05-15T11:53:23.351Z,99854.00
2023-05-15T11:58:24.960Z,99847.60
2023-05-15T12:03:34.313Z,99846.20
2023-05-15T12:08:38.626Z,99849.00
2023-05-15T12:13:38.350Z,99840.80
2023-05-15T12:18:38.205Z,99836.60
2023-05-15T12:23:37.714Z,99827.80
2023-05-15T12:28:40.006Z,99837.00
2023-05-15T12:33:40.044Z,99835.00
2023-05-15T12:38:42.040Z,99826.00
2023-05-15T12:43:42.681Z,99816.40
2023-05-15T12:48:43.709Z,99808.00
2023-05-15T12:53:44.922Z,99799.40
2023-05-15T12:58:44.040Z,99800.20
2023-05-15T13:03:45.859Z,99791.60
2023-05-15T13:08:47.714Z,99782.60
2023-05-15T13:13:52.054Z,99781.20
2023-05-15T13:18:51.380Z,99771.00
2023-05-15T13:23:51.872Z,99768.40
2023-05-15T13:28:52.169Z,99758.60
2023-05-15T13:33:51.905Z,99751.00
2023-05-15T13:38:50.388Z,99756.80
2023-05-15T13:43:49.598Z,99764.20
2023-05-15T13:48:49.145Z,99746.20
2023-05-15T13:53:48.340Z,99744.60
2023-05-15T13:58:48.381Z,99731.20
2023-05-15T14:03:47.529Z,99728.00
2023-05-15T14:08:47.070Z,99731.20
2023-05-15T14:13:47.601Z,99726.60
2023-05-15T14:18:47.274Z,99729.20
2023-05-15T14:23:46.584Z,99728.80
2023-05-15T14:28:46.440Z,99731.40
2023-05-15T14:33:46.435Z,99736.20
2023-05-15T14:38:48.317Z,99724.60
2023-05-15T14:43:47.627Z,99719.60
2023-05-15T14:48:46.945Z,99703.40
2023-05-15T14:53:46.185Z,99693.60
2023-05-15T14:58:46.715Z,99683.20
2023-05-15T15:03:46.398Z,99692.80
2023-05-15T15:08:45.784Z,99692.00
2023-05-15T15:13:45.432Z,99685.80
2023-05-15T15:18:44.928Z,99697.00
2023-05-15T15:23:44.967Z,99703.80
2023-05-15T15:28:44.065Z,99726.40
2023-05-15T15:33:43.172Z,99718.60
2023-05-15T15:38:44.050Z,99724.80
2023-05-15T15:43:43.358Z,99714.60
2023-05-15T15:48:42.747Z,99700.40
2023-05-15T15:53:43.294Z,99702.80
2023-05-15T15:58:43.330Z,99694.40
2023-05-15T16:03:42.597Z,99693.00
2023-05-15T16:08:42.493Z,99682.80
2023-05-15T16:13:41.708Z,99676.60
2023-05-15T16:18:40.816Z,99665.60
2023-05-15T16:23:44.512Z,99667.00
2023-05-15T16:28:45.644Z,99676.00
2023-05-15T16:33:44.890Z,99681.00
2023-05-15T16:38:46.996Z,99678.00
2023-05-15T16:43:46.698Z,99683.80
2023-05-15T16:48:51.834Z,99665.40
2023-05-15T16:53:56.322Z,99664.60
2023-05-15T16:58:58.732Z,99660.40
2023-05-15T17:04:00.224Z,99663.40
2023-05-15T17:09:00.527Z,99664.80
2023-05-15T17:14:01.141Z,99663.40
2023-05-15T17:19:01.369Z,99666.20
2023-05-15T17:24:01.267Z,99669.20
2023-05-15T17:29:00.904Z,99667.20
2023-05-15T17:34:01.149Z,99675.20
2023-05-15T17:39:00.689Z,99675.00
2023-05-15T17:43:59.892Z,99665.80
2023-05-15T17:48:59.850Z,99673.80
2023-05-15T17:53:58.397Z,99672.20
2023-05-15T17:58:58.156Z,99663.20
2023-05-15T18:03:58.834Z,99671.40
2023-05-15T18:08:58.478Z,99673.00
2023-05-15T18:13:57.544Z,99679.20
2023-05-15T18:18:57.300Z,99684.40
2023-05-15T18:23:57.321Z,99688.80
2023-05-15T18:28:56.977Z,99700.60
2023-05-15T18:33:56.615Z,99706.60
2023-05-15T18:38:56.354Z,99711.40
2023-05-15T18:43:56.106Z,99714.20
2023-05-15T18:48:56.184Z,99722.80
2023-05-15T18:53:55.518Z,99737.00
2023-05-15T18:58:54.869Z,99737.00
2023-05-15T19:03:53.815Z,99741.00
2023-05-15T19:08:53.888Z,99745.00
2023-05-15T19:13:54.864Z,99749.40
2023-05-15T19:18:54.626Z,99740.00
2023-05-15T19:23:54.032Z,99735.00
2023-05-15T19:28:54.746Z,99726.40
2023-05-15T19:33:56.134Z,99722.40
2023-05-15T19:38:56.162Z,99720.20
2023-05-15T19:43:56.235Z,99714.80
2023-05-15T19:48:55.694Z,99716.60
2023-05-15T19:53:54.914Z,99713.00
2023-05-15T19:58:54.643Z,99710.80
2023-05-15T20:03:54.641Z,99701.80
2023-05-15T20:08:53.951Z,99707.00
2023-05-15T20:13:53.433Z,99709.60
2023-05-15T20:18:55.279Z,99700.80
2023-05-15T20:23:54.527Z,99697.20
2023-05-15T20:28:53.158Z,99710.00
2023-05-15T20:33:52.929Z,99713.40
2023-05-15T20:38:52.581Z,99708.40
2023-05-15T20:43:51.736Z,99705.00
2023-05-15T20:48:51.304Z,99706.40
2023-05-15T20:53:50.456Z,99698.60
2023-05-15T20:58:49.621Z,99707.40
2023-05-15T21:03:49.029Z,99704.80
2023-05-15T21:08:48.174Z,99700.20
2023-05-15T21:13:47.999Z,99708.20
2023-05-15T21:18:49.120Z,99705.20
2023-05-15T21:23:49.697Z,99708.60
2023-05-15T21:28:49.019Z,99700.40
2023-05-15T21:33:48.052Z,99691.00
2023-05-15T21:38:49.378Z,99692.60
2023-05-15T21:43:48.360Z,99694.20
2023-05-15T21:48:49.770Z,99685.40
2023-05-15T21:53:49.144Z,99692.00
2023-05-15T21:58:48.620Z,99698.20
2023-05-15T22:03:47.530Z,99700.20
2023-05-15T22:08:46.994Z,99700.00
2023-05-15T22:13:46.436Z,99706.60
2023-05-15T22:18:47.805Z,99707.60
2023-05-15T22:23:47.847Z,99707.80
2023-05-15T22:28:48.504Z,99714.60
2023-05-15T22:33:47.995Z,99715.60
2023-05-15T22:38:46.855Z,99722.20
2023-05-15T22:43:46.241Z,99720.00
2023-05-15T22:48:45.045Z,99729.40
2023-05-15T22:53:44.598Z,99725.00
2023-05-15T22:58:43.767Z,99726.60
2023-05-15T23:03:43.284Z,99733.20
2023-05-15T23:08:42.685Z,99728.60
2023-05-15T23:13:41.832Z,99724.60
2023-05-15T23:18:41.061Z,99720.80
2023-05-15T23:23:40.400Z,99716.80
2023-05-15T23:28:40.076Z,99717.40
2023-05-15T23:33:39.761Z,99715.60
2023-05-15T23:38:40.022Z,99716.40
2023-05-15T23:43:39.319Z,99717.60
2023-05-15T23:48:38.456Z,99716.60
2023-05-15T23:53:38.688Z,99714.60
2023-05-15T23:58:38.487Z,99707.80
